sensor_id;sensor_type;location;lat;lon;timestamp;P1;durP1;ratioP1;P2;durP2;ratioP2
3689;SDS011;1861;50.240;8.596;2023-08-20T00:02:02;7.70;;;4.97;;
3689;SDS011;1861;50.240;8.596;2023-08-20T00:04:35;6.30;;;4.57;;
3689;SDS011;1861;50.240;8.596;2023-08-20T00:07:04;14.00;;;4.88;;
3689;SDS011;1861;50.240;8.596;2023-08-20T00:09:35;11.27;;;5.45;;
3689;SDS011;1861;50.240;8.596;2023-08-20T00:12:04;7.93;;;4.45;;
3689;SDS011;1861;50.240;8.596;2023-08-20T00:14:51;8.30;;;5.00;;
3689;SDS011;1861;50.240;8.596;2023-08-20T00:17:21;6.05;;;4.28;;
3689;SDS011;1861;50.240;8.596;2023-08-20T00:19:51;7.30;;;4.82;;
3689;SDS011;1861;50.240;8.596;2023-08-20T00:22:21;10.90;;;6.63;;
3689;SDS011;1861;50.240;8.596;2023-08-20T00:24:52;6.50;;;4.68;;
3689;SDS011;1861;50.240;8.596;2023-08-20T00:27:21;11.07;;;4.85;;
3689;SDS011;1861;50.240;8.596;2023-08-20T00:29:49;5.85;;;4.03;;
3689;SDS011;1861;50.240;8.596;2023-08-20T00:32:17;5.82;;;4.07;;
3689;SDS011;1861;50.240;8.596;2023-08-20T00:34:45;7.45;;;4.38;;
3689;SDS011;1861;50.240;8.596;2023-08-20T00:37:13;9.85;;;5.07;;
3689;SDS011;1861;50.240;8.596;2023-08-20T00:39:42;8.35;;;5.60;;
3689;SDS011;1861;50.240;8.596;2023-08-20T00:42:12;8.45;;;4.03;;
3689;SDS011;1861;50.240;8.596;2023-08-20T00:44:41;6.60;;;4.10;;
3689;SDS011;1861;50.240;8.596;2023-08-20T00:47:11;6.53;;;4.05;;
3689;SDS011;1861;50.240;8.596;2023-08-20T00:49:40;6.32;;;4.30;;
3689;SDS011;1861;50.240;8.596;2023-08-20T00:52:09;7.13;;;3.90;;
3689;SDS011;1861;50.240;8.596;2023-08-20T00:54:40;11.25;;;4.43;;
3689;SDS011;1861;50.240;8.596;2023-08-20T00:57:09;4.32;;;3.90;;
3689;SDS011;1861;50.240;8.596;2023-08-20T00:59:38;7.97;;;4.55;;
3689;SDS011;1861;50.240;8.596;2023-08-20T01:02:07;7.65;;;3.97;;
3689;SDS011;1861;50.240;8.596;2023-08-20T01:04:35;7.78;;;3.92;;
3689;SDS011;1861;50.240;8.596;2023-08-20T01:07:05;8.60;;;3.75;;
3689;SDS011;1861;50.240;8.596;2023-08-20T01:09:43;5.80;;;4.22;;
3689;SDS011;1861;50.240;8.596;2023-08-20T01:12:17;9.80;;;4.53;;
3689;SDS011;1861;50.240;8.596;2023-08-20T01:14:49;4.63;;;3.60;;
3689;SDS011;1861;50.240;8.596;2023-08-20T01:17:17;6.65;;;3.55;;
3689;SDS011;1861;50.240;8.596;2023-08-20T01:19:46;20.17;;;4.35;;
3689;SDS011;1861;50.240;8.596;2023-08-20T01:22:30;11.15;;;4.05;;
3689;SDS011;1861;50.240;8.596;2023-08-20T01:25:30;9.30;;;4.10;;
3689;SDS011;1861;50.240;8.596;2023-08-20T01:28:20;7.32;;;4.05;;
3689;SDS011;1861;50.240;8.596;2023-08-20T01:30:50;13.43;;;4.40;;
3689;SDS011;1861;50.240;8.596;2023-08-20T01:33:19;11.77;;;5.15;;
3689;SDS011;1861;50.240;8.596;2023-08-20T01:35:47;6.15;;;4.00;;
3689;SDS011;1861;50.240;8.596;2023-08-20T01:38:15;5.15;;;3.53;;
3689;SDS011;1861;50.240;8.596;2023-08-20T01:40:43;6.57;;;4.28;;
3689;SDS011;1861;50.240;8.596;2023-08-20T01:43:11;9.02;;;4.28;;
3689;SDS011;1861;50.240;8.596;2023-08-20T01:45:41;6.60;;;3.85;;
3689;SDS011;1861;50.240;8.596;2023-08-20T01:48:09;6.80;;;4.50;;
3689;SDS011;1861;50.240;8.596;2023-08-20T01:50:38;5.90;;;4.13;;
3689;SDS011;1861;50.240;8.596;2023-08-20T01:53:06;6.70;;;4.60;;
3689;SDS011;1861;50.240;8.596;2023-08-20T01:55:36;17.13;;;4.20;;
3689;SDS011;1861;50.240;8.596;2023-08-20T01:58:04;13.70;;;5.10;;
3689;SDS011;1861;50.240;8.596;2023-08-20T02:00:32;5.10;;;4.53;;
3689;SDS011;1861;50.240;8.596;2023-08-20T02:03:02;7.03;;;3.80;;
3689;SDS011;1861;50.240;8.596;2023-08-20T02:05:31;8.93;;;3.83;;
3689;SDS011;1861;50.240;8.596;2023-08-20T02:07:59;6.72;;;4.28;;
3689;SDS011;1861;50.240;8.596;2023-08-20T02:10:27;12.00;;;5.00;;
3689;SDS011;1861;50.240;8.596;2023-08-20T02:12:55;11.15;;;4.97;;
3689;SDS011;1861;50.240;8.596;2023-08-20T02:15:23;11.40;;;4.07;;
3689;SDS011;1861;50.240;8.596;2023-08-20T02:17:51;9.27;;;4.22;;
3689;SDS011;1861;50.240;8.596;2023-08-20T02:20:21;8.93;;;4.70;;
3689;SDS011;1861;50.240;8.596;2023-08-20T02:22:49;9.88;;;4.25;;
3689;SDS011;1861;50.240;8.596;2023-08-20T02:25:17;6.05;;;3.60;;
3689;SDS011;1861;50.240;8.596;2023-08-20T02:27:45;6.22;;;4.10;;
3689;SDS011;1861;50.240;8.596;2023-08-20T02:30:13;5.05;;;3.53;;
3689;SDS011;1861;50.240;8.596;2023-08-20T02:32:43;4.70;;;3.63;;
3689;SDS011;1861;50.240;8.596;2023-08-20T02:35:11;11.48;;;4.28;;
3689;SDS011;1861;50.240;8.596;2023-08-20T02:37:43;8.48;;;3.88;;
3689;SDS011;1861;50.240;8.596;2023-08-20T02:40:11;6.50;;;4.90;;
3689;SDS011;1861;50.240;8.596;2023-08-20T02:42:40;4.72;;;3.97;;
3689;SDS011;1861;50.240;8.596;2023-08-20T02:45:09;7.43;;;3.88;;
3689;SDS011;1861;50.240;8.596;2023-08-20T02:47:37;12.70;;;3.92;;
3689;SDS011;1861;50.240;8.596;2023-08-20T02:50:05;7.75;;;5.32;;
3689;SDS011;1861;50.240;8.596;2023-08-20T02:52:33;5.47;;;3.90;;
3689;SDS011;1861;50.240;8.596;2023-08-20T02:55:03;5.65;;;4.03;;
3689;SDS011;1861;50.240;8.596;2023-08-20T02:57:31;5.63;;;3.70;;
3689;SDS011;1861;50.240;8.596;2023-08-20T03:00:00;9.45;;;4.45;;
3689;SDS011;1861;50.240;8.596;2023-08-20T03:02:29;6.78;;;3.88;;
3689;SDS011;1861;50.240;8.596;2023-08-20T03:04:57;9.73;;;3.72;;
3689;SDS011;1861;50.240;8.596;2023-08-20T03:07:25;5.82;;;3.83;;
3689;SDS011;1861;50.240;8.596;2023-08-20T03:09:53;8.13;;;4.43;;
3689;SDS011;1861;50.240;8.596;2023-08-20T03:12:23;12.48;;;5.43;;
3689;SDS011;1861;50.240;8.596;2023-08-20T03:14:51;11.70;;;5.00;;
3689;SDS011;1861;50.240;8.596;2023-08-20T03:17:19;10.13;;;4.30;;
3689;SDS011;1861;50.240;8.596;2023-08-20T03:19:53;4.32;;;3.60;;
3689;SDS011;1861;50.240;8.596;2023-08-20T03:22:23;7.85;;;4.50;;
3689;SDS011;1861;50.240;8.596;2023-08-20T03:24:53;7.00;;;4.43;;
3689;SDS011;1861;50.240;8.596;2023-08-20T03:27:22;8.20;;;4.50;;
3689;SDS011;1861;50.240;8.596;2023-08-20T03:29:51;7.10;;;4.38;;
3689;SDS011;1861;50.240;8.596;2023-08-20T03:32:20;6.47;;;4.72;;
3689;SDS011;1861;50.240;8.596;2023-08-20T03:34:48;6.30;;;4.55;;
3689;SDS011;1861;50.240;8.596;2023-08-20T03:37:17;7.88;;;4.93;;
3689;SDS011;1861;50.240;8.596;2023-08-20T03:39:46;6.78;;;4.97;;
3689;SDS011;1861;50.240;8.596;2023-08-20T03:42:14;7.32;;;4.85;;
3689;SDS011;1861;50.240;8.596;2023-08-20T03:44:43;7.30;;;5.03;;
3689;SDS011;1861;50.240;8.596;2023-08-20T03:47:11;8.45;;;4.82;;
3689;SDS011;1861;50.240;8.596;2023-08-20T03:49:40;6.03;;;4.60;;
3689;SDS011;1861;50.240;8.596;2023-08-20T03:52:08;10.30;;;5.18;;
3689;SDS011;1861;50.240;8.596;2023-08-20T03:54:36;9.07;;;5.57;;
3689;SDS011;1861;50.240;8.596;2023-08-20T03:57:05;7.07;;;5.03;;
3689;SDS011;1861;50.240;8.596;2023-08-20T03:59:33;11.00;;;5.35;;
3689;SDS011;1861;50.240;8.596;2023-08-20T04:02:02;7.93;;;5.18;;
3689;SDS011;1861;50.240;8.596;2023-08-20T04:04:31;9.13;;;5.53;;
3689;SDS011;1861;50.240;8.596;2023-08-20T04:06:59;12.80;;;5.68;;
3689;SDS011;1861;50.240;8.596;2023-08-20T04:09:27;12.45;;;6.53;;
3689;SDS011;1861;50.240;8.596;2023-08-20T04:11:55;9.30;;;6.32;;
3689;SDS011;1861;50.240;8.596;2023-08-20T04:14:23;9.48;;;6.40;;
3689;SDS011;1861;50.240;8.596;2023-08-20T04:16:52;9.63;;;6.13;;
3689;SDS011;1861;50.240;8.596;2023-08-20T04:19:21;12.38;;;5.78;;
3689;SDS011;1861;50.240;8.596;2023-08-20T04:21:50;13.90;;;6.07;;
3689;SDS011;1861;50.240;8.596;2023-08-20T04:24:18;12.32;;;5.93;;
3689;SDS011;1861;50.240;8.596;2023-08-20T04:26:46;12.65;;;5.90;;
3689;SDS011;1861;50.240;8.596;2023-08-20T04:29:21;8.82;;;5.85;;
3689;SDS011;1861;50.240;8.596;2023-08-20T04:31:49;9.88;;;6.60;;
3689;SDS011;1861;50.240;8.596;2023-08-20T04:34:17;9.02;;;5.65;;
3689;SDS011;1861;50.240;8.596;2023-08-20T04:36:51;8.00;;;5.70;;
3689;SDS011;1861;50.240;8.596;2023-08-20T04:39:19;9.48;;;5.38;;
3689;SDS011;1861;50.240;8.596;2023-08-20T04:41:51;9.43;;;6.28;;
3689;SDS011;1861;50.240;8.596;2023-08-20T04:44:21;8.27;;;5.97;;
3689;SDS011;1861;50.240;8.596;2023-08-20T04:46:49;8.52;;;5.95;;
3689;SDS011;1861;50.240;8.596;2023-08-20T04:49:17;9.75;;;7.00;;
3689;SDS011;1861;50.240;8.596;2023-08-20T04:51:46;12.10;;;6.78;;
3689;SDS011;1861;50.240;8.596;2023-08-20T04:54:17;8.35;;;6.18;;
3689;SDS011;1861;50.240;8.596;2023-08-20T04:56:46;9.48;;;6.18;;
3689;SDS011;1861;50.240;8.596;2023-08-20T04:59:14;8.65;;;5.82;;
3689;SDS011;1861;50.240;8.596;2023-08-20T05:01:51;9.18;;;6.30;;
3689;SDS011;1861;50.240;8.596;2023-08-20T05:04:33;7.68;;;5.60;;
3689;SDS011;1861;50.240;8.596;2023-08-20T05:07:01;12.15;;;6.20;;
3689;SDS011;1861;50.240;8.596;2023-08-20T05:09:31;9.32;;;6.90;;
3689;SDS011;1861;50.240;8.596;2023-08-20T05:12:00;7.85;;;5.90;;
3689;SDS011;1861;50.240;8.596;2023-08-20T05:14:29;9.25;;;6.55;;
3689;SDS011;1861;50.240;8.596;2023-08-20T05:16:58;12.63;;;6.18;;
3689;SDS011;1861;50.240;8.596;2023-08-20T05:19:26;9.23;;;6.35;;
3689;SDS011;1861;50.240;8.596;2023-08-20T05:21:54;8.50;;;6.60;;
3689;SDS011;1861;50.240;8.596;2023-08-20T05:24:27;10.35;;;6.50;;
3689;SDS011;1861;50.240;8.596;2023-08-20T05:27:14;9.88;;;6.07;;
3689;SDS011;1861;50.240;8.596;2023-08-20T05:29:46;9.93;;;7.50;;
3689;SDS011;1861;50.240;8.596;2023-08-20T05:32:15;12.88;;;7.40;;
3689;SDS011;1861;50.240;8.596;2023-08-20T05:34:43;10.23;;;7.20;;
3689;SDS011;1861;50.240;8.596;2023-08-20T05:37:11;8.00;;;6.20;;
3689;SDS011;1861;50.240;8.596;2023-08-20T05:39:40;9.23;;;6.22;;
3689;SDS011;1861;50.240;8.596;2023-08-20T05:42:11;12.90;;;7.40;;
3689;SDS011;1861;50.240;8.596;2023-08-20T05:44:44;15.40;;;7.60;;
3689;SDS011;1861;50.240;8.596;2023-08-20T05:47:16;7.90;;;6.18;;
3689;SDS011;1861;50.240;8.596;2023-08-20T05:49:44;8.18;;;6.65;;
3689;SDS011;1861;50.240;8.596;2023-08-20T05:52:12;11.73;;;6.82;;
3689;SDS011;1861;50.240;8.596;2023-08-20T05:54:42;11.35;;;6.70;;
3689;SDS011;1861;50.240;8.596;2023-08-20T05:57:12;15.57;;;7.90;;
3689;SDS011;1861;50.240;8.596;2023-08-20T05:59:41;10.85;;;7.32;;
3689;SDS011;1861;50.240;8.596;2023-08-20T06:02:09;11.70;;;6.80;;
3689;SDS011;1861;50.240;8.596;2023-08-20T06:04:37;12.98;;;7.55;;
3689;SDS011;1861;50.240;8.596;2023-08-20T06:07:05;11.25;;;7.13;;
3689;SDS011;1861;50.240;8.596;2023-08-20T06:09:33;11.77;;;7.28;;
3689;SDS011;1861;50.240;8.596;2023-08-20T06:12:01;19.17;;;7.88;;
3689;SDS011;1861;50.240;8.596;2023-08-20T06:14:30;12.32;;;7.40;;
3689;SDS011;1861;50.240;8.596;2023-08-20T06:16:59;13.02;;;7.78;;
3689;SDS011;1861;50.240;8.596;2023-08-20T06:19:27;17.35;;;7.68;;
3689;SDS011;1861;50.240;8.596;2023-08-20T06:21:55;11.48;;;7.22;;
3689;SDS011;1861;50.240;8.596;2023-08-20T06:24:23;10.18;;;7.55;;
3689;SDS011;1861;50.240;8.596;2023-08-20T06:26:52;13.30;;;7.63;;
3689;SDS011;1861;50.240;8.596;2023-08-20T06:29:20;9.80;;;7.75;;
3689;SDS011;1861;50.240;8.596;2023-08-20T06:31:50;11.57;;;6.85;;
3689;SDS011;1861;50.240;8.596;2023-08-20T06:34:18;10.02;;;6.57;;
3689;SDS011;1861;50.240;8.596;2023-08-20T06:36:47;13.95;;;7.57;;
3689;SDS011;1861;50.240;8.596;2023-08-20T06:39:15;11.00;;;7.38;;
3689;SDS011;1861;50.240;8.596;2023-08-20T06:41:43;10.70;;;8.02;;
3689;SDS011;1861;50.240;8.596;2023-08-20T06:44:19;9.43;;;6.97;;
3689;SDS011;1861;50.240;8.596;2023-08-20T06:46:47;11.88;;;8.27;;
3689;SDS011;1861;50.240;8.596;2023-08-20T06:49:16;12.43;;;7.30;;
3689;SDS011;1861;50.240;8.596;2023-08-20T06:51:44;16.30;;;8.07;;
3689;SDS011;1861;50.240;8.596;2023-08-20T06:54:13;9.93;;;7.05;;
3689;SDS011;1861;50.240;8.596;2023-08-20T06:56:42;9.93;;;7.55;;
3689;SDS011;1861;50.240;8.596;2023-08-20T06:59:11;8.85;;;7.40;;
3689;SDS011;1861;50.240;8.596;2023-08-20T07:01:39;9.95;;;7.10;;
3689;SDS011;1861;50.240;8.596;2023-08-20T07:04:07;17.52;;;7.32;;
3689;SDS011;1861;50.240;8.596;2023-08-20T07:06:37;10.77;;;7.40;;
3689;SDS011;1861;50.240;8.596;2023-08-20T07:09:05;11.07;;;6.20;;
3689;SDS011;1861;50.240;8.596;2023-08-20T07:11:33;9.85;;;7.47;;
3689;SDS011;1861;50.240;8.596;2023-08-20T07:14:01;10.23;;;7.18;;
3689;SDS011;1861;50.240;8.596;2023-08-20T07:16:29;10.35;;;7.85;;
3689;SDS011;1861;50.240;8.596;2023-08-20T07:18:58;9.43;;;7.03;;
3689;SDS011;1861;50.240;8.596;2023-08-20T07:21:26;10.43;;;6.85;;
3689;SDS011;1861;50.240;8.596;2023-08-20T07:23:55;12.20;;;7.65;;
3689;SDS011;1861;50.240;8.596;2023-08-20T07:26:23;12.20;;;8.00;;
3689;SDS011;1861;50.240;8.596;2023-08-20T07:28:51;10.35;;;6.80;;
3689;SDS011;1861;50.240;8.596;2023-08-20T07:31:27;7.25;;;5.63;;
3689;SDS011;1861;50.240;8.596;2023-08-20T07:33:56;11.43;;;7.65;;
3689;SDS011;1861;50.240;8.596;2023-08-20T07:36:30;9.77;;;6.95;;
3689;SDS011;1861;50.240;8.596;2023-08-20T07:39:00;9.70;;;7.85;;
3689;SDS011;1861;50.240;8.596;2023-08-20T07:41:29;11.48;;;7.78;;
3689;SDS011;1861;50.240;8.596;2023-08-20T07:43:57;8.77;;;6.95;;
3689;SDS011;1861;50.240;8.596;2023-08-20T07:46:26;11.75;;;7.40;;
3689;SDS011;1861;50.240;8.596;2023-08-20T07:48:54;13.13;;;7.95;;
3689;SDS011;1861;50.240;8.596;2023-08-20T07:51:22;9.90;;;7.75;;
3689;SDS011;1861;50.240;8.596;2023-08-20T07:53:50;8.23;;;6.25;;
3689;SDS011;1861;50.240;8.596;2023-08-20T07:56:19;7.07;;;6.30;;
3689;SDS011;1861;50.240;8.596;2023-08-20T07:58:48;17.55;;;6.95;;
3689;SDS011;1861;50.240;8.596;2023-08-20T08:01:16;7.93;;;6.68;;
3689;SDS011;1861;50.240;8.596;2023-08-20T08:03:44;9.30;;;6.03;;
3689;SDS011;1861;50.240;8.596;2023-08-20T08:06:12;9.52;;;7.30;;
3689;SDS011;1861;50.240;8.596;2023-08-20T08:08:41;7.20;;;5.72;;
3689;SDS011;1861;50.240;8.596;2023-08-20T08:11:11;13.60;;;7.22;;
3689;SDS011;1861;50.240;8.596;2023-08-20T08:13:40;12.15;;;6.90;;
3689;SDS011;1861;50.240;8.596;2023-08-20T08:16:08;11.57;;;7.10;;
3689;SDS011;1861;50.240;8.596;2023-08-20T08:18:36;13.52;;;8.50;;
3689;SDS011;1861;50.240;8.596;2023-08-20T08:21:04;14.35;;;8.95;;
3689;SDS011;1861;50.240;8.596;2023-08-20T08:23:32;13.48;;;7.88;;
3689;SDS011;1861;50.240;8.596;2023-08-20T08:26:00;12.20;;;8.23;;
3689;SDS011;1861;50.240;8.596;2023-08-20T08:28:29;11.95;;;7.68;;
3689;SDS011;1861;50.240;8.596;2023-08-20T08:30:58;15.27;;;10.10;;
3689;SDS011;1861;50.240;8.596;2023-08-20T08:33:26;16.60;;;10.10;;
3689;SDS011;1861;50.240;8.596;2023-08-20T08:35:55;15.02;;;9.70;;
3689;SDS011;1861;50.240;8.596;2023-08-20T08:38:23;14.13;;;9.88;;
3689;SDS011;1861;50.240;8.596;2023-08-20T08:40:53;12.50;;;9.20;;
3689;SDS011;1861;50.240;8.596;2023-08-20T08:43:22;10.35;;;8.20;;
3689;SDS011;1861;50.240;8.596;2023-08-20T08:45:52;15.18;;;9.95;;
3689;SDS011;1861;50.240;8.596;2023-08-20T08:48:24;12.35;;;8.65;;
3689;SDS011;1861;50.240;8.596;2023-08-20T08:50:53;18.52;;;10.57;;
3689;SDS011;1861;50.240;8.596;2023-08-20T08:53:22;12.80;;;8.48;;
3689;SDS011;1861;50.240;8.596;2023-08-20T08:55:52;11.85;;;8.25;;
3689;SDS011;1861;50.240;8.596;2023-08-20T08:58:20;11.45;;;7.93;;
3689;SDS011;1861;50.240;8.596;2023-08-20T09:00:48;10.20;;;7.45;;
3689;SDS011;1861;50.240;8.596;2023-08-20T09:03:17;15.68;;;9.02;;
3689;SDS011;1861;50.240;8.596;2023-08-20T09:05:47;19.20;;;9.23;;
3689;SDS011;1861;50.240;8.596;2023-08-20T09:08:19;14.48;;;8.73;;
3689;SDS011;1861;50.240;8.596;2023-08-20T09:10:49;12.85;;;8.98;;
3689;SDS011;1861;50.240;8.596;2023-08-20T09:13:21;11.98;;;8.70;;
3689;SDS011;1861;50.240;8.596;2023-08-20T09:15:51;14.63;;;9.38;;
3689;SDS011;1861;50.240;8.596;2023-08-20T09:18:20;15.32;;;8.13;;
3689;SDS011;1861;50.240;8.596;2023-08-20T09:20:50;11.40;;;8.38;;
3689;SDS011;1861;50.240;8.596;2023-08-20T09:23:18;13.40;;;8.27;;
3689;SDS011;1861;50.240;8.596;2023-08-20T09:25:46;11.40;;;7.90;;
3689;SDS011;1861;50.240;8.596;2023-08-20T09:28:14;9.98;;;7.35;;
3689;SDS011;1861;50.240;8.596;2023-08-20T09:30:54;13.38;;;8.00;;
3689;SDS011;1861;50.240;8.596;2023-08-20T09:33:22;11.98;;;8.02;;
3689;SDS011;1861;50.240;8.596;2023-08-20T09:35:52;12.45;;;8.18;;
3689;SDS011;1861;50.240;8.596;2023-08-20T09:38:22;13.35;;;8.98;;
3689;SDS011;1861;50.240;8.596;2023-08-20T09:40:51;14.52;;;8.95;;
3689;SDS011;1861;50.240;8.596;2023-08-20T09:43:23;12.52;;;8.32;;
3689;SDS011;1861;50.240;8.596;2023-08-20T09:45:55;13.55;;;8.98;;
3689;SDS011;1861;50.240;8.596;2023-08-20T09:48:24;11.90;;;8.40;;
3689;SDS011;1861;50.240;8.596;2023-08-20T09:50:57;14.45;;;8.95;;
3689;SDS011;1861;50.240;8.596;2023-08-20T09:53:32;11.48;;;7.65;;
3689;SDS011;1861;50.240;8.596;2023-08-20T09:56:04;12.07;;;7.93;;
3689;SDS011;1861;50.240;8.596;2023-08-20T09:58:37;13.63;;;9.00;;
3689;SDS011;1861;50.240;8.596;2023-08-20T10:01:06;11.27;;;8.15;;
3689;SDS011;1861;50.240;8.596;2023-08-20T10:03:35;18.13;;;9.63;;
3689;SDS011;1861;50.240;8.596;2023-08-20T10:06:06;12.60;;;8.38;;
3689;SDS011;1861;50.240;8.596;2023-08-20T10:08:34;10.93;;;7.82;;
3689;SDS011;1861;50.240;8.596;2023-08-20T10:11:02;12.27;;;8.45;;
3689;SDS011;1861;50.240;8.596;2023-08-20T10:13:30;11.65;;;8.00;;
3689;SDS011;1861;50.240;8.596;2023-08-20T10:15:59;11.88;;;7.13;;
3689;SDS011;1861;50.240;8.596;2023-08-20T10:18:27;12.40;;;7.68;;
3689;SDS011;1861;50.240;8.596;2023-08-20T10:20:56;9.57;;;6.80;;
3689;SDS011;1861;50.240;8.596;2023-08-20T10:23:30;10.00;;;7.38;;
3689;SDS011;1861;50.240;8.596;2023-08-20T10:26:06;10.15;;;7.20;;
3689;SDS011;1861;50.240;8.596;2023-08-20T10:28:35;10.20;;;6.78;;
3689;SDS011;1861;50.240;8.596;2023-08-20T10:31:04;10.65;;;7.45;;
3689;SDS011;1861;50.240;8.596;2023-08-20T10:33:34;12.38;;;7.28;;
3689;SDS011;1861;50.240;8.596;2023-08-20T10:36:07;9.73;;;7.55;;
3689;SDS011;1861;50.240;8.596;2023-08-20T10:38:37;21.85;;;7.60;;
3689;SDS011;1861;50.240;8.596;2023-08-20T10:41:06;13.02;;;8.20;;
3689;SDS011;1861;50.240;8.596;2023-08-20T10:43:36;8.70;;;6.15;;
3689;SDS011;1861;50.240;8.596;2023-08-20T10:46:06;8.30;;;6.38;;
3689;SDS011;1861;50.240;8.596;2023-08-20T10:48:42;8.63;;;6.97;;
3689;SDS011;1861;50.240;8.596;2023-08-20T10:51:14;9.38;;;6.25;;
3689;SDS011;1861;50.240;8.596;2023-08-20T10:56:43;8.85;;;6.43;;
3689;SDS011;1861;50.240;8.596;2023-08-20T10:59:15;14.93;;;9.75;;
3689;SDS011;1861;50.240;8.596;2023-08-20T11:01:44;13.07;;;8.10;;
3689;SDS011;1861;50.240;8.596;2023-08-20T11:04:14;14.75;;;8.20;;
3689;SDS011;1861;50.240;8.596;2023-08-20T11:06:44;12.73;;;8.90;;
3689;SDS011;1861;50.240;8.596;2023-08-20T11:09:13;12.55;;;7.93;;
3689;SDS011;1861;50.240;8.596;2023-08-20T11:11:42;14.68;;;7.80;;
3689;SDS011;1861;50.240;8.596;2023-08-20T11:14:11;10.50;;;7.50;;
3689;SDS011;1861;50.240;8.596;2023-08-20T11:16:41;12.20;;;8.05;;
3689;SDS011;1861;50.240;8.596;2023-08-20T11:19:10;9.82;;;7.50;;
3689;SDS011;1861;50.240;8.596;2023-08-20T11:21:39;12.63;;;8.20;;
3689;SDS011;1861;50.240;8.596;2023-08-20T11:24:08;13.50;;;8.35;;
3689;SDS011;1861;50.240;8.596;2023-08-20T11:26:40;9.10;;;7.15;;
3689;SDS011;1861;50.240;8.596;2023-08-20T11:29:09;9.68;;;7.32;;
3689;SDS011;1861;50.240;8.596;2023-08-20T11:31:39;12.07;;;7.18;;
3689;SDS011;1861;50.240;8.596;2023-08-20T11:34:08;11.38;;;6.97;;
3689;SDS011;1861;50.240;8.596;2023-08-20T11:36:37;10.70;;;7.25;;
3689;SDS011;1861;50.240;8.596;2023-08-20T11:39:06;11.57;;;6.90;;
3689;SDS011;1861;50.240;8.596;2023-08-20T11:41:36;15.55;;;7.43;;
3689;SDS011;1861;50.240;8.596;2023-08-20T11:44:07;10.18;;;6.68;;
3689;SDS011;1861;50.240;8.596;2023-08-20T11:46:41;11.60;;;7.57;;
3689;SDS011;1861;50.240;8.596;2023-08-20T11:49:11;8.85;;;7.13;;
3689;SDS011;1861;50.240;8.596;2023-08-20T11:51:41;8.02;;;5.88;;
3689;SDS011;1861;50.240;8.596;2023-08-20T11:54:12;7.85;;;6.00;;
3689;SDS011;1861;50.240;8.596;2023-08-20T11:56:42;7.90;;;6.05;;
3689;SDS011;1861;50.240;8.596;2023-08-20T11:59:13;8.70;;;6.50;;
3689;SDS011;1861;50.240;8.596;2023-08-20T12:01:42;8.85;;;6.28;;
3689;SDS011;1861;50.240;8.596;2023-08-20T12:04:11;8.27;;;6.00;;
3689;SDS011;1861;50.240;8.596;2023-08-20T12:06:39;9.25;;;6.70;;
3689;SDS011;1861;50.240;8.596;2023-08-20T12:09:18;7.55;;;5.57;;
3689;SDS011;1861;50.240;8.596;2023-08-20T12:11:48;9.55;;;6.45;;
3689;SDS011;1861;50.240;8.596;2023-08-20T12:14:19;9.45;;;5.63;;
3689;SDS011;1861;50.240;8.596;2023-08-20T12:16:47;10.13;;;6.18;;
3689;SDS011;1861;50.240;8.596;2023-08-20T12:19:17;9.00;;;6.10;;
3689;SDS011;1861;50.240;8.596;2023-08-20T12:21:45;8.00;;;6.32;;
3689;SDS011;1861;50.240;8.596;2023-08-20T12:24:14;7.57;;;6.07;;
3689;SDS011;1861;50.240;8.596;2023-08-20T12:26:42;7.93;;;6.38;;
3689;SDS011;1861;50.240;8.596;2023-08-20T12:29:10;8.57;;;6.20;;
3689;SDS011;1861;50.240;8.596;2023-08-20T12:31:40;9.15;;;6.45;;
3689;SDS011;1861;50.240;8.596;2023-08-20T12:34:08;8.60;;;6.07;;
3689;SDS011;1861;50.240;8.596;2023-08-20T12:36:37;11.93;;;6.55;;
3689;SDS011;1861;50.240;8.596;2023-08-20T12:39:05;9.50;;;7.00;;
3689;SDS011;1861;50.240;8.596;2023-08-20T12:41:34;7.90;;;5.85;;
3689;SDS011;1861;50.240;8.596;2023-08-20T12:44:04;7.63;;;5.90;;
3689;SDS011;1861;50.240;8.596;2023-08-20T12:46:33;8.07;;;5.93;;
3689;SDS011;1861;50.240;8.596;2023-08-20T12:49:02;8.43;;;5.75;;
3689;SDS011;1861;50.240;8.596;2023-08-20T12:51:31;7.68;;;5.85;;
3689;SDS011;1861;50.240;8.596;2023-08-20T12:53:59;7.15;;;5.32;;
3689;SDS011;1861;50.240;8.596;2023-08-20T12:56:27;6.97;;;5.38;;
3689;SDS011;1861;50.240;8.596;2023-08-20T12:58:55;8.05;;;5.82;;
3689;SDS011;1861;50.240;8.596;2023-08-20T13:01:23;6.20;;;5.32;;
3689;SDS011;1861;50.240;8.596;2023-08-20T13:03:51;9.13;;;5.75;;
3689;SDS011;1861;50.240;8.596;2023-08-20T13:06:22;7.05;;;5.88;;
3689;SDS011;1861;50.240;8.596;2023-08-20T13:08:51;7.53;;;5.75;;
3689;SDS011;1861;50.240;8.596;2023-08-20T13:11:19;9.02;;;6.30;;
3689;SDS011;1861;50.240;8.596;2023-08-20T13:13:49;6.60;;;5.20;;
3689;SDS011;1861;50.240;8.596;2023-08-20T13:16:18;8.90;;;5.40;;
3689;SDS011;1861;50.240;8.596;2023-08-20T13:18:47;7.80;;;6.05;;
3689;SDS011;1861;50.240;8.596;2023-08-20T13:21:15;7.32;;;5.13;;
3689;SDS011;1861;50.240;8.596;2023-08-20T13:23:45;7.03;;;5.30;;
3689;SDS011;1861;50.240;8.596;2023-08-20T13:26:13;8.70;;;5.88;;
3689;SDS011;1861;50.240;8.596;2023-08-20T13:28:41;8.27;;;6.00;;
3689;SDS011;1861;50.240;8.596;2023-08-20T13:31:09;6.80;;;5.30;;
3689;SDS011;1861;50.240;8.596;2023-08-20T13:33:37;6.60;;;5.32;;
3689;SDS011;1861;50.240;8.596;2023-08-20T13:36:05;7.63;;;5.57;;
3689;SDS011;1861;50.240;8.596;2023-08-20T13:38:34;6.22;;;5.18;;
3689;SDS011;1861;50.240;8.596;2023-08-20T13:41:04;7.13;;;4.95;;
3689;SDS011;1861;50.240;8.596;2023-08-20T13:43:32;7.90;;;5.63;;
3689;SDS011;1861;50.240;8.596;2023-08-20T13:46:00;6.50;;;5.03;;
3689;SDS011;1861;50.240;8.596;2023-08-20T13:48:28;8.52;;;5.40;;
3689;SDS011;1861;50.240;8.596;2023-08-20T13:50:57;11.95;;;5.25;;
3689;SDS011;1861;50.240;8.596;2023-08-20T13:53:25;5.50;;;4.40;;
3689;SDS011;1861;50.240;8.596;2023-08-20T13:55:53;7.47;;;5.65;;
3689;SDS011;1861;50.240;8.596;2023-08-20T13:58:23;9.07;;;6.55;;
3689;SDS011;1861;50.240;8.596;2023-08-20T14:00:51;8.07;;;5.72;;
3689;SDS011;1861;50.240;8.596;2023-08-20T14:03:19;8.25;;;5.70;;
3689;SDS011;1861;50.240;8.596;2023-08-20T14:05:47;8.07;;;6.18;;
3689;SDS011;1861;50.240;8.596;2023-08-20T14:08:15;7.75;;;5.40;;
3689;SDS011;1861;50.240;8.596;2023-08-20T14:10:43;8.25;;;4.68;;
3689;SDS011;1861;50.240;8.596;2023-08-20T14:13:11;8.52;;;5.13;;
3689;SDS011;1861;50.240;8.596;2023-08-20T14:15:41;6.43;;;4.57;;
3689;SDS011;1861;50.240;8.596;2023-08-20T14:18:09;7.93;;;5.57;;
3689;SDS011;1861;50.240;8.596;2023-08-20T14:20:37;8.05;;;5.28;;
3689;SDS011;1861;50.240;8.596;2023-08-20T14:23:05;10.35;;;6.55;;
3689;SDS011;1861;50.240;8.596;2023-08-20T14:25:33;10.63;;;7.03;;
3689;SDS011;1861;50.240;8.596;2023-08-20T14:28:01;9.07;;;6.05;;
3689;SDS011;1861;50.240;8.596;2023-08-20T14:30:30;11.60;;;4.88;;
3689;SDS011;1861;50.240;8.596;2023-08-20T14:32:59;6.80;;;5.35;;
3689;SDS011;1861;50.240;8.596;2023-08-20T14:35:27;7.10;;;5.18;;
3689;SDS011;1861;50.240;8.596;2023-08-20T14:37:55;8.00;;;5.57;;
3689;SDS011;1861;50.240;8.596;2023-08-20T14:40:24;9.57;;;5.93;;
3689;SDS011;1861;50.240;8.596;2023-08-20T14:42:52;8.88;;;5.63;;
3689;SDS011;1861;50.240;8.596;2023-08-20T14:45:20;11.13;;;6.65;;
3689;SDS011;1861;50.240;8.596;2023-08-20T14:47:48;8.30;;;5.50;;
3689;SDS011;1861;50.240;8.596;2023-08-20T14:50:17;8.15;;;5.05;;
3689;SDS011;1861;50.240;8.596;2023-08-20T14:52:45;8.02;;;5.28;;
3689;SDS011;1861;50.240;8.596;2023-08-20T14:55:18;8.45;;;5.68;;
3689;SDS011;1861;50.240;8.596;2023-08-20T14:57:46;5.68;;;4.72;;
3689;SDS011;1861;50.240;8.596;2023-08-20T15:00:18;7.38;;;5.25;;
3689;SDS011;1861;50.240;8.596;2023-08-20T15:02:49;8.05;;;5.10;;
3689;SDS011;1861;50.240;8.596;2023-08-20T15:05:19;4.65;;;4.15;;
3689;SDS011;1861;50.240;8.596;2023-08-20T15:07:48;10.30;;;6.18;;
3689;SDS011;1861;50.240;8.596;2023-08-20T15:10:16;7.55;;;5.50;;
3689;SDS011;1861;50.240;8.596;2023-08-20T15:12:45;7.68;;;5.35;;
3689;SDS011;1861;50.240;8.596;2023-08-20T15:15:13;7.15;;;5.38;;
3689;SDS011;1861;50.240;8.596;2023-08-20T15:17:41;7.68;;;5.57;;
3689;SDS011;1861;50.240;8.596;2023-08-20T15:20:09;7.28;;;5.05;;
3689;SDS011;1861;50.240;8.596;2023-08-20T15:22:39;6.53;;;5.05;;
3689;SDS011;1861;50.240;8.596;2023-08-20T15:25:08;7.13;;;5.43;;
3689;SDS011;1861;50.240;8.596;2023-08-20T15:27:37;5.28;;;4.25;;